sensor_id;sensor_type;location;lat;lon;timestamp;temperature;humidity
20744;DHT22;56303;52.160;-0.428;2022-10-20T00:01:54;14.60;99.90
20744;DHT22;56303;52.160;-0.428;2022-10-20T00:04:20;14.40;99.90
20744;DHT22;56303;52.160;-0.428;2022-10-20T00:06:47;14.60;99.90
20744;DHT22;56303;52.160;-0.428;2022-10-20T00:09:14;14.60;99.90
20744;DHT22;56303;52.160;-0.428;2022-10-20T00:11:42;14.70;99.90
20744;DHT22;56303;52.160;-0.428;2022-10-20T00:14:09;14.60;99.90
20744;DHT22;56303;52.160;-0.428;2022-10-20T00:16:37;14.60;99.90
20744;DHT22;56303;52.160;-0.428;2022-10-20T00:19:04;14.70;99.90
20744;DHT22;56303;52.160;-0.428;2022-10-20T00:21:31;14.90;99.90
20744;DHT22;56303;52.160;-0.428;2022-10-20T00:23:59;14.90;99.90
20744;DHT22;56303;52.160;-0.428;2022-10-20T00:26:30;14.90;99.90
20744;DHT22;56303;52.160;-0.428;2022-10-20T00:28:57;15.00;99.90
20744;DHT22;56303;52.160;-0.428;2022-10-20T00:31:25;14.80;99.90
20744;DHT22;56303;52.160;-0.428;2022-10-20T00:33:52;14.70;99.90
20744;DHT22;56303;52.160;-0.428;2022-10-20T00:36:20;14.60;99.90
20744;DHT22;56303;52.160;-0.428;2022-10-20T00:38:48;14.70;99.90
20744;DHT22;56303;52.160;-0.428;2022-10-20T00:41:17;14.70;99.90
20744;DHT22;56303;52.160;-0.428;2022-10-20T00:46:15;14.80;99.90
20744;DHT22;56303;52.160;-0.428;2022-10-20T00:48:47;14.60;99.90
20744;DHT22;56303;52.160;-0.428;2022-10-20T00:51:17;14.70;99.90
20744;DHT22;56303;52.160;-0.428;2022-10-20T00:53:45;14.70;99.90
20744;DHT22;56303;52.160;-0.428;2022-10-20T00:56:14;14.80;99.90
20744;DHT22;56303;52.160;-0.428;2022-10-20T00:58:42;14.90;99.90
20744;DHT22;56303;52.160;-0.428;2022-10-20T01:01:10;14.70;99.90
20744;DHT22;56303;52.160;-0.428;2022-10-20T01:03:45;14.90;99.90
20744;DHT22;56303;52.160;-0.428;2022-10-20T01:06:14;14.70;99.90
20744;DHT22;56303;52.160;-0.428;2022-10-20T01:08:42;14.70;99.90
20744;DHT22;56303;52.160;-0.428;2022-10-20T01:19:29;14.80;99.90
20744;DHT22;56303;52.160;-0.428;2022-10-20T01:25:12;15.00;99.90
20744;DHT22;56303;52.160;-0.428;2022-10-20T01:27:44;15.00;99.90
20744;DHT22;56303;52.160;-0.428;2022-10-20T01:30:13;15.00;99.90
20744;DHT22;56303;52.160;-0.428;2022-10-20T01:43:42;15.00;99.90
20744;DHT22;56303;52.160;-0.428;2022-10-20T01:46:11;15.10;99.90
20744;DHT22;56303;52.160;-0.428;2022-10-20T01:48:39;15.00;99.90
20744;DHT22;56303;52.160;-0.428;2022-10-20T01:51:07;15.00;99.90
20744;DHT22;56303;52.160;-0.428;2022-10-20T01:53:35;14.90;99.90
20744;DHT22;56303;52.160;-0.428;2022-10-20T01:56:03;15.00;99.90
20744;DHT22;56303;52.160;-0.428;2022-10-20T02:01:19;15.00;99.90
20744;DHT22;56303;52.160;-0.428;2022-10-20T02:03:53;15.00;99.90
20744;DHT22;56303;52.160;-0.428;2022-10-20T02:08:59;15.10;99.90
20744;DHT22;56303;52.160;-0.428;2022-10-20T02:14:04;14.90;99.90
20744;DHT22;56303;52.160;-0.428;2022-10-20T02:16:33;15.00;99.90
20744;DHT22;56303;52.160;-0.428;2022-10-20T02:19:03;14.90;99.90
20744;DHT22;56303;52.160;-0.428;2022-10-20T02:21:31;15.10;99.90
20744;DHT22;56303;52.160;-0.428;2022-10-20T02:24:00;15.10;99.90
20744;DHT22;56303;52.160;-0.428;2022-10-20T02:26:31;15.00;99.90
20744;DHT22;56303;52.160;-0.428;2022-10-20T02:29:03;15.00;99.90
20744;DHT22;56303;52.160;-0.428;2022-10-20T02:31:31;15.10;99.90
20744;DHT22;56303;52.160;-0.428;2022-10-20T02:33:58;15.20;99.90
20744;DHT22;56303;52.160;-0.428;2022-10-20T02:36:26;15.20;99.90
20744;DHT22;56303;52.160;-0.428;2022-10-20T02:38:54;15.20;99.90
20744;DHT22;56303;52.160;-0.428;2022-10-20T02:41:21;15.20;99.90
20744;DHT22;56303;52.160;-0.428;2022-10-20T02:43:48;15.20;99.90
20744;DHT22;56303;52.160;-0.428;2022-10-20T02:46:14;15.40;99.90
20744;DHT22;56303;52.160;-0.428;2022-10-20T02:48:43;15.40;99.90
20744;DHT22;56303;52.160;-0.428;2022-10-20T02:51:10;15.20;99.90
20744;DHT22;56303;52.160;-0.428;2022-10-20T02:53:37;15.10;99.90
20744;DHT22;56303;52.160;-0.428;2022-10-20T02:56:04;15.20;99.90
20744;DHT22;56303;52.160;-0.428;2022-10-20T02:58:31;15.10;99.90
20744;DHT22;56303;52.160;-0.428;2022-10-20T03:00:58;15.20;99.90
20744;DHT22;56303;52.160;-0.428;2022-10-20T03:03:24;15.00;99.90
20744;DHT22;56303;52.160;-0.428;2022-10-20T03:05:51;14.90;99.90
20744;DHT22;56303;52.160;-0.428;2022-10-20T03:08:18;14.90;99.90
20744;DHT22;56303;52.160;-0.428;2022-10-20T03:10:45;15.00;99.90
20744;DHT22;56303;52.160;-0.428;2022-10-20T03:13:12;15.00;99.90
20744;DHT22;56303;52.160;-0.428;2022-10-20T03:15:41;14.90;99.90
20744;DHT22;56303;52.160;-0.428;2022-10-20T03:18:08;14.90;99.90
20744;DHT22;56303;52.160;-0.428;2022-10-20T03:20:34;14.90;99.90
20744;DHT22;56303;52.160;-0.428;2022-10-20T03:23:01;15.10;99.90
20744;DHT22;56303;52.160;-0.428;2022-10-20T03:25:30;15.10;99.90
20744;DHT22;56303;52.160;-0.428;2022-10-20T03:27:57;14.90;99.90
20744;DHT22;56303;52.160;-0.428;2022-10-20T03:30:24;15.00;99.90
20744;DHT22;56303;52.160;-0.428;2022-10-20T03:32:50;15.30;99.90
20744;DHT22;56303;52.160;-0.428;2022-10-20T03:35:18;15.40;99.90
20744;DHT22;56303;52.160;-0.428;2022-10-20T03:37:44;15.40;99.90
20744;DHT22;56303;52.160;-0.428;2022-10-20T03:40:11;15.30;99.90
20744;DHT22;56303;52.160;-0.428;2022-10-20T03:42:38;15.50;99.90
20744;DHT22;56303;52.160;-0.428;2022-10-20T03:45:05;15.50;99.90
20744;DHT22;56303;52.160;-0.428;2022-10-20T03:47:32;15.50;99.90
20744;DHT22;56303;52.160;-0.428;2022-10-20T03:49:59;15.70;99.90
20744;DHT22;56303;52.160;-0.428;2022-10-20T03:52:26;15.90;99.90
20744;DHT22;56303;52.160;-0.428;2022-10-20T03:54:53;15.80;99.90
20744;DHT22;56303;52.160;-0.428;2022-10-20T03:57:19;15.60;99.90
20744;DHT22;56303;52.160;-0.428;2022-10-20T03:59:46;15.40;99.90
20744;DHT22;56303;52.160;-0.428;2022-10-20T04:02:35;15.40;99.90
20744;DHT22;56303;52.160;-0.428;2022-10-20T04:05:03;15.60;99.90
20744;DHT22;56303;52.160;-0.428;2022-10-20T04:07:30;15.60;99.90
20744;DHT22;56303;52.160;-0.428;2022-10-20T04:09:57;15.80;99.90
20744;DHT22;56303;52.160;-0.428;2022-10-20T04:12:24;16.10;99.90
20744;DHT22;56303;52.160;-0.428;2022-10-20T04:14:51;16.10;99.90
20744;DHT22;56303;52.160;-0.428;2022-10-20T04:17:17;15.90;99.90
20744;DHT22;56303;52.160;-0.428;2022-10-20T04:19:44;15.90;99.90
20744;DHT22;56303;52.160;-0.428;2022-10-20T04:22:12;16.00;99.90
20744;DHT22;56303;52.160;-0.428;2022-10-20T04:24:39;15.80;99.90
20744;DHT22;56303;52.160;-0.428;2022-10-20T04:27:06;15.70;99.90
20744;DHT22;56303;52.160;-0.428;2022-10-20T04:29:33;15.70;99.90
20744;DHT22;56303;52.160;-0.428;2022-10-20T04:31:59;15.90;99.90
20744;DHT22;56303;52.160;-0.428;2022-10-20T04:34:27;15.90;99.90
20744;DHT22;56303;52.160;-0.428;2022-10-20T04:36:54;16.10;99.90
20744;DHT22;56303;52.160;-0.428;2022-10-20T04:39:20;16.10;99.90
20744;DHT22;56303;52.160;-0.428;2022-10-20T04:41:47;16.30;99.90
20744;DHT22;56303;52.160;-0.428;2022-10-20T04:44:14;16.40;99.90
20744;DHT22;56303;52.160;-0.428;2022-10-20T04:46:41;16.50;99.90
20744;DHT22;56303;52.160;-0.428;2022-10-20T04:49:08;16.50;99.90
20744;DHT22;56303;52.160;-0.428;2022-10-20T04:51:35;16.80;99.90
20744;DHT22;56303;52.160;-0.428;2022-10-20T04:54:02;16.70;99.90
20744;DHT22;56303;52.160;-0.428;2022-10-20T04:56:34;16.50;99.90
20744;DHT22;56303;52.160;-0.428;2022-10-20T04:59:00;16.40;99.90
20744;DHT22;56303;52.160;-0.428;2022-10-20T05:01:30;16.40;99.90
20744;DHT22;56303;52.160;-0.428;2022-10-20T05:03:57;16.20;99.90
20744;DHT22;56303;52.160;-0.428;2022-10-20T05:06:29;16.10;99.90
20744;DHT22;56303;52.160;-0.428;2022-10-20T05:08:59;16.20;99.90
20744;DHT22;56303;52.160;-0.428;2022-10-20T05:11:29;16.10;99.90
20744;DHT22;56303;52.160;-0.428;2022-10-20T05:13:56;16.20;99.90
20744;DHT22;56303;52.160;-0.428;2022-10-20T05:16:23;16.20;99.90
20744;DHT22;56303;52.160;-0.428;2022-10-20T05:18:50;16.40;99.90
20744;DHT22;56303;52.160;-0.428;2022-10-20T05:21:22;16.30;99.90
20744;DHT22;56303;52.160;-0.428;2022-10-20T05:23:55;16.40;99.90
20744;DHT22;56303;52.160;-0.428;2022-10-20T05:26:23;16.40;99.90
20744;DHT22;56303;52.160;-0.428;2022-10-20T05:28:50;16.30;99.90
20744;DHT22;56303;52.160;-0.428;2022-10-20T05:31:20;16.20;99.90
20744;DHT22;56303;52.160;-0.428;2022-10-20T05:33:52;16.40;99.90
20744;DHT22;56303;52.160;-0.428;2022-10-20T05:36:24;16.30;99.90
20744;DHT22;56303;52.160;-0.428;2022-10-20T05:38:52;15.90;99.90
20744;DHT22;56303;52.160;-0.428;2022-10-20T05:41:25;16.00;99.90
20744;DHT22;56303;52.160;-0.428;2022-10-20T05:44:00;16.20;99.90
20744;DHT22;56303;52.160;-0.428;2022-10-20T05:46:30;16.50;99.90
20744;DHT22;56303;52.160;-0.428;2022-10-20T05:49:00;16.80;99.90
20744;DHT22;56303;52.160;-0.428;2022-10-20T05:51:29;17.00;99.90
20744;DHT22;56303;52.160;-0.428;2022-10-20T05:53:58;17.20;99.90
20744;DHT22;56303;52.160;-0.428;2022-10-20T05:56:26;17.20;99.90
20744;DHT22;56303;52.160;-0.428;2022-10-20T05:58:54;17.00;99.90
20744;DHT22;56303;52.160;-0.428;2022-10-20T06:01:23;17.00;99.90
20744;DHT22;56303;52.160;-0.428;2022-10-20T06:03:59;17.00;99.90
20744;DHT22;56303;52.160;-0.428;2022-10-20T06:06:28;17.00;99.90
20744;DHT22;56303;52.160;-0.428;2022-10-20T06:08:56;16.80;99.90
20744;DHT22;56303;52.160;-0.428;2022-10-20T06:11:24;16.90;99.90
20744;DHT22;56303;52.160;-0.428;2022-10-20T06:13:51;17.20;99.90
20744;DHT22;56303;52.160;-0.428;2022-10-20T06:16:21;17.30;99.90
20744;DHT22;56303;52.160;-0.428;2022-10-20T06:18:48;17.40;99.90
20744;DHT22;56303;52.160;-0.428;2022-10-20T06:21:21;17.40;99.90
20744;DHT22;56303;52.160;-0.428;2022-10-20T06:27:29;17.20;99.90
20744;DHT22;56303;52.160;-0.428;2022-10-20T06:29:55;16.80;99.90
20744;DHT22;56303;52.160;-0.428;2022-10-20T06:32:22;16.90;99.90
20744;DHT22;56303;52.160;-0.428;2022-10-20T06:34:49;17.00;99.90
20744;DHT22;56303;52.160;-0.428;2022-10-20T06:37:16;17.30;99.90
20744;DHT22;56303;52.160;-0.428;2022-10-20T06:39:42;17.10;99.90
20744;DHT22;56303;52.160;-0.428;2022-10-20T06:42:09;16.70;99.90
20744;DHT22;56303;52.160;-0.428;2022-10-20T06:44:37;16.70;99.90
20744;DHT22;56303;52.160;-0.428;2022-10-20T06:47:04;16.70;99.90
20744;DHT22;56303;52.160;-0.428;2022-10-20T06:49:35;16.70;99.90
20744;DHT22;56303;52.160;-0.428;2022-10-20T06:52:02;16.90;99.90
20744;DHT22;56303;52.160;-0.428;2022-10-20T06:54:29;17.10;99.90
20744;DHT22;56303;52.160;-0.428;2022-10-20T06:56:56;16.80;99.90
20744;DHT22;56303;52.160;-0.428;2022-10-20T06:59:23;16.90;99.90
20744;DHT22;56303;52.160;-0.428;2022-10-20T07:01:50;16.80;99.90
20744;DHT22;56303;52.160;-0.428;2022-10-20T07:04:18;16.90;99.90
20744;DHT22;56303;52.160;-0.428;2022-10-20T07:06:45;16.90;99.90
20744;DHT22;56303;52.160;-0.428;2022-10-20T07:09:15;17.10;99.90
20744;DHT22;56303;52.160;-0.428;2022-10-20T07:11:42;17.00;99.90
20744;DHT22;56303;52.160;-0.428;2022-10-20T07:14:11;17.00;99.90
20744;DHT22;56303;52.160;-0.428;2022-10-20T07:16:39;17.20;99.90
20744;DHT22;56303;52.160;-0.428;2022-10-20T07:19:05;17.10;99.90
20744;DHT22;56303;52.160;-0.428;2022-10-20T07:21:33;17.20;99.90
20744;DHT22;56303;52.160;-0.428;2022-10-20T07:24:06;17.20;99.90
20744;DHT22;56303;52.160;-0.428;2022-10-20T07:26:36;17.00;99.90
20744;DHT22;56303;52.160;-0.428;2022-10-20T07:29:04;16.80;99.90
20744;DHT22;56303;52.160;-0.428;2022-10-20T07:31:37;16.60;99.90
20744;DHT22;56303;52.160;-0.428;2022-10-20T07:34:06;16.60;99.90
20744;DHT22;56303;52.160;-0.428;2022-10-20T07:36:51;16.90;99.90
20744;DHT22;56303;52.160;-0.428;2022-10-20T07:39:18;17.20;99.90
20744;DHT22;56303;52.160;-0.428;2022-10-20T07:41:45;17.20;99.90
20744;DHT22;56303;52.160;-0.428;2022-10-20T07:44:14;17.20;99.90
20744;DHT22;56303;52.160;-0.428;2022-10-20T07:46:41;17.20;99.90
20744;DHT22;56303;52.160;-0.428;2022-10-20T07:49:08;17.40;99.90
20744;DHT22;56303;52.160;-0.428;2022-10-20T07:51:55;17.30;99.90
20744;DHT22;56303;52.160;-0.428;2022-10-20T07:54:22;17.40;99.90
20744;DHT22;56303;52.160;-0.428;2022-10-20T07:56:49;17.40;99.90
20744;DHT22;56303;52.160;-0.428;2022-10-20T07:59:16;17.30;99.90
20744;DHT22;56303;52.160;-0.428;2022-10-20T08:01:43;17.30;99.90
20744;DHT22;56303;52.160;-0.428;2022-10-20T08:04:10;17.40;99.90
20744;DHT22;56303;52.160;-0.428;2022-10-20T08:06:38;17.30;99.90
20744;DHT22;56303;52.160;-0.428;2022-10-20T08:09:05;17.30;99.90
20744;DHT22;56303;52.160;-0.428;2022-10-20T08:11:33;17.20;99.90
20744;DHT22;56303;52.160;-0.428;2022-10-20T08:14:00;17.40;99.90
20744;DHT22;56303;52.160;-0.428;2022-10-20T08:16:27;17.50;99.90
20744;DHT22;56303;52.160;-0.428;2022-10-20T08:18:56;17.50;99.90
20744;DHT22;56303;52.160;-0.428;2022-10-20T08:21:25;17.60;99.90
20744;DHT22;56303;52.160;-0.428;2022-10-20T08:23:52;17.60;99.90
20744;DHT22;56303;52.160;-0.428;2022-10-20T08:26:21;17.60;99.90
20744;DHT22;56303;52.160;-0.428;2022-10-20T08:28:49;17.60;99.90
20744;DHT22;56303;52.160;-0.428;2022-10-20T08:31:17;17.50;99.90
20744;DHT22;56303;52.160;-0.428;2022-10-20T08:33:44;17.50;99.90
20744;DHT22;56303;52.160;-0.428;2022-10-20T08:36:17;17.60;99.90
20744;DHT22;56303;52.160;-0.428;2022-10-20T08:38:44;17.70;99.90
20744;DHT22;56303;52.160;-0.428;2022-10-20T08:41:29;17.80;99.90
20744;DHT22;56303;52.160;-0.428;2022-10-20T08:44:20;17.70;99.90
20744;DHT22;56303;52.160;-0.428;2022-10-20T08:46:48;17.80;99.90
20744;DHT22;56303;52.160;-0.428;2022-10-20T08:49:25;17.70;99.90
20744;DHT22;56303;52.160;-0.428;2022-10-20T08:51:52;17.80;99.90
20744;DHT22;56303;52.160;-0.428;2022-10-20T08:54:21;17.90;99.90
20744;DHT22;56303;52.160;-0.428;2022-10-20T08:56:47;17.90;99.90
20744;DHT22;56303;52.160;-0.428;2022-10-20T08:59:35;17.60;99.90
20744;DHT22;56303;52.160;-0.428;2022-10-20T09:02:14;17.30;99.90
20744;DHT22;56303;52.160;-0.428;2022-10-20T09:05:00;17.10;99.90
20744;DHT22;56303;52.160;-0.428;2022-10-20T09:07:31;16.90;99.90
20744;DHT22;56303;52.160;-0.428;2022-10-20T09:12:45;16.70;99.90
20744;DHT22;56303;52.160;-0.428;2022-10-20T09:15:14;16.80;99.90
20744;DHT22;56303;52.160;-0.428;2022-10-20T09:17:59;16.60;99.90
20744;DHT22;56303;52.160;-0.428;2022-10-20T09:20:34;16.30;99.90
20744;DHT22;56303;52.160;-0.428;2022-10-20T09:23:03;15.90;99.90
20744;DHT22;56303;52.160;-0.428;2022-10-20T09:25:48;16.00;99.90
20744;DHT22;56303;52.160;-0.428;2022-10-20T09:28:26;16.00;99.90
20744;DHT22;56303;52.160;-0.428;2022-10-20T09:31:23;16.10;99.90
20744;DHT22;56303;52.160;-0.428;2022-10-20T09:33:57;16.20;99.90
20744;DHT22;56303;52.160;-0.428;2022-10-20T09:36:33;16.00;99.90
20744;DHT22;56303;52.160;-0.428;2022-10-20T09:39:01;15.90;99.90
20744;DHT22;56303;52.160;-0.428;2022-10-20T09:41:31;16.00;99.90
20744;DHT22;56303;52.160;-0.428;2022-10-20T09:44:03;16.10;99.90
20744;DHT22;56303;52.160;-0.428;2022-10-20T09:46:37;16.30;99.90
20744;DHT22;56303;52.160;-0.428;2022-10-20T09:49:06;16.40;99.90
20744;DHT22;56303;52.160;-0.428;2022-10-20T09:51:33;16.40;99.90
20744;DHT22;56303;52.160;-0.428;2022-10-20T09:54:09;16.60;99.90
20744;DHT22;56303;52.160;-0.428;2022-10-20T09:56:41;16.80;99.90
20744;DHT22;56303;52.160;-0.428;2022-10-20T09:59:24;17.00;99.90
20744;DHT22;56303;52.160;-0.428;2022-10-20T10:07:00;17.00;99.90
20744;DHT22;56303;52.160;-0.428;2022-10-20T10:09:29;17.10;99.90
20744;DHT22;56303;52.160;-0.428;2022-10-20T10:12:03;17.10;99.90
20744;DHT22;56303;52.160;-0.428;2022-10-20T10:14:31;17.10;99.90
20744;DHT22;56303;52.160;-0.428;2022-10-20T10:16:59;16.90;99.90
20744;DHT22;56303;52.160;-0.428;2022-10-20T10:19:29;17.10;99.90
20744;DHT22;56303;52.160;-0.428;2022-10-20T10:22:01;17.00;99.90
20744;DHT22;56303;52.160;-0.428;2022-10-20T10:24:42;17.00;99.90
20744;DHT22;56303;52.160;-0.428;2022-10-20T10:29:50;17.10;99.90
20744;DHT22;56303;52.160;-0.428;2022-10-20T10:32:19;17.20;99.90
20744;DHT22;56303;52.160;-0.428;2022-10-20T10:35:16;17.30;99.90
20744;DHT22;56303;52.160;-0.428;2022-10-20T10:37:46;17.30;99.90
20744;DHT22;56303;52.160;-0.428;2022-10-20T10:40:16;17.20;99.90
20744;DHT22;56303;52.160;-0.428;2022-10-20T10:42:56;17.00;99.90
20744;DHT22;56303;52.160;-0.428;2022-10-20T10:51:00;17.10;99.90
20744;DHT22;56303;52.160;-0.428;2022-10-20T10:58:55;17.00;99.90
20744;DHT22;56303;52.160;-0.428;2022-10-20T11:01:50;17.30;99.90
20744;DHT22;56303;52.160;-0.428;2022-10-20T11:07:29;17.30;99.90
20744;DHT22;56303;52.160;-0.428;2022-10-20T11:10:09;17.30;99.90
20744;DHT22;56303;52.160;-0.428;2022-10-20T11:15:38;17.20;99.90
20744;DHT22;56303;52.160;-0.428;2022-10-20T11:26:32;17.30;99.90
20744;DHT22;56303;52.160;-0.428;2022-10-20T11:29:03;17.30;99.90
20744;DHT22;56303;52.160;-0.428;2022-10-20T11:34:38;17.00;99.90
20744;DHT22;56303;52.160;-0.428;2022-10-20T11:43:11;17.50;99.90
20744;DHT22;56303;52.160;-0.428;2022-10-20T11:56:04;18.20;99.90
20744;DHT22;56303;52.160;-0.428;2022-10-20T12:01:20;17.80;99.90
20744;DHT22;56303;52.160;-0.428;2022-10-20T12:04:17;18.10;99.90
20744;DHT22;56303;52.160;-0.428;2022-10-20T12:09:31;18.20;99.90
20744;DHT22;56303;52.160;-0.428;2022-10-20T12:12:15;17.90;99.90
20744;DHT22;56303;52.160;-0.428;2022-10-20T12:14:50;17.90;99.90
20744;DHT22;56303;52.160;-0.428;2022-10-20T12:22:53;18.10;99.90
20744;DHT22;56303;52.160;-0.428;2022-10-20T12:31:14;18.00;99.90
20744;DHT22;56303;52.160;-0.428;2022-10-20T12:33:59;18.10;99.90
20744;DHT22;56303;52.160;-0.428;2022-10-20T12:36:28;17.90;99.90
20744;DHT22;56303;52.160;-0.428;2022-10-20T12:39:13;17.90;99.90
20744;DHT22;56303;52.160;-0.428;2022-10-20T12:42:01;18.00;99.90
20744;DHT22;56303;52.160;-0.428;2022-10-20T12:44:41;18.00;99.90
20744;DHT22;56303;52.160;-0.428;2022-10-20T12:47:13;17.60;99.90
20744;DHT22;56303;52.160;-0.428;2022-10-20T12:49:55;17.70;99.90
20744;DHT22;56303;52.160;-0.428;2022-10-20T12:52:30;17.90;99.90
20744;DHT22;56303;52.160;-0.428;2022-10-20T12:55:05;17.70;99.90
20744;DHT22;56303;52.160;-0.428;2022-10-20T12:57:38;17.70;99.90
20744;DHT22;56303;52.160;-0.428;2022-10-20T13:02:57;17.80;99.90
20744;DHT22;56303;52.160;-0.428;2022-10-20T13:05:45;17.90;99.90
20744;DHT22;56303;52.160;-0.428;2022-10-20T13:08:22;17.90;99.90
20744;DHT22;56303;52.160;-0.428;2022-10-20T13:10:50;18.40;99.90
20744;DHT22;56303;52.160;-0.428;2022-10-20T13:15:51;19.80;99.90
20744;DHT22;56303;52.160;-0.428;2022-10-20T13:18:30;20.00;99.90
20744;DHT22;56303;52.160;-0.428;2022-10-20T13:27:11;20.30;99.90
20744;DHT22;56303;52.160;-0.428;2022-10-20T13:29:39;20.20;99.90
20744;DHT22;56303;52.160;-0.428;2022-10-20T13:32:22;20.00;99.90
20744;DHT22;56303;52.160;-0.428;2022-10-20T13:35:00;19.60;99.90
20744;DHT22;56303;52.160;-0.428;2022-10-20T13:51:43;18.40;99.90
20744;DHT22;56303;52.160;-0.428;2022-10-20T13:54:25;18.30;99.90
20744;DHT22;56303;52.160;-0.428;2022-10-20T13:56:53;18.00;99.90
20744;DHT22;56303;52.160;-0.428;2022-10-20T13:59:24;18.10;99.90
20744;DHT22;56303;52.160;-0.428;2022-10-20T14:02:00;18.20;99.90
20744;DHT22;56303;52.160;-0.428;2022-10-20T14:04:34;18.50;99.90
20744;DHT22;56303;52.160;-0.428;2022-10-20T14:09:29;18.70;99.90
20744;DHT22;56303;52.160;-0.428;2022-10-20T14:12:01;18.60;99.90
20744;DHT22;56303;52.160;-0.428;2022-10-20T14:14:29;18.60;99.90
20744;DHT22;56303;52.160;-0.428;2022-10-20T14:17:01;19.70;99.90
20744;DHT22;56303;52.160;-0.428;2022-10-20T14:19:30;20.50;99.90
20744;DHT22;56303;52.160;-0.428;2022-10-20T14:22:12;20.70;99.90
20744;DHT22;56303;52.160;-0.428;2022-10-20T14:24:46;20.70;99.90
20744;DHT22;56303;52.160;-0.428;2022-10-20T14:27:29;21.00;99.90
20744;DHT22;56303;52.160;-0.428;2022-10-20T14:29:57;20.20;99.90
20744;DHT22;56303;52.160;-0.428;2022-10-20T14:32:27;19.80;99.90
20744;DHT22;56303;52.160;-0.428;2022-10-20T14:35:21;20.00;99.90
20744;DHT22;56303;52.160;-0.428;2022-10-20T14:37:54;19.50;99.90
20744;DHT22;56303;52.160;-0.428;2022-10-20T14:40:29;19.10;99.90
20744;DHT22;56303;52.160;-0.428;2022-10-20T14:43:12;19.00;99.90
20744;DHT22;56303;52.160;-0.428;2022-10-20T14:45:40;18.40;99.90
20744;DHT22;56303;52.160;-0.428;2022-10-20T14:48:13;18.00;99.90
20744;DHT22;56303;52.160;-0.428;2022-10-20T14:50:40;17.90;99.90
20744;DHT22;56303;52.160;-0.428;2022-10-20T14:55:54;18.00;99.90
20744;DHT22;56303;52.160;-0.428;2022-10-20T15:01:18;18.00;99.90
20744;DHT22;56303;52.160;-0.428;2022-10-20T15:03:46;18.20;99.90
20744;DHT22;56303;52.160;-0.428;2022-10-20T15:06:15;18.50;99.90
20744;DHT22;56303;52.160;-0.428;2022-10-20T15:08:53;19.30;99.90
20744;DHT22;56303;52.160;-0.428;2022-10-20T15:11:25;19.80;99.90
20744;DHT22;56303;52.160;-0.428;2022-10-20T15:13:54;19.10;99.90
20744;DHT22;56303;52.160;-0.428;2022-10-20T15:19:25;18.00;99.90
20744;DHT22;56303;52.160;-0.428;2022-10-20T15:22:01;18.00;99.90
20744;DHT22;56303;52.160;-0.428;2022-10-20T15:24:28;18.00;99.90
20744;DHT22;56303;52.160;-0.428;2022-10-20T15:26:56;18.30;99.90
20744;DHT22;56303;52.160;-0.428;2022-10-20T15:29:23;18.20;99.90
20744;DHT22;56303;52.160;-0.428;2022-10-20T15:31:50;17.80;99.90
20744;DHT22;56303;52.160;-0.428;2022-10-20T15:34:20;17.70;99.90
20744;DHT22;56303;52.160;-0.428;2022-10-20T15:36:47;17.40;99.90
20744;DHT22;56303;52.160;-0.428;2022-10-20T15:39:16;17.50;99.90
20744;DHT22;56303;52.160;-0.428;2022-10-20T15:41:43;17.40;99.90
20744;DHT22;56303;52.160;-0.428;2022-10-20T15:44:12;17.30;99.90
20744;DHT22;56303;52.160;-0.428;2022-10-20T15:46:41;17.90;99.90
20744;DHT22;56303;52.160;-0.428;2022-10-20T15:49:08;17.70;99.90
20744;DHT22;56303;52.160;-0.428;2022-10-20T15:51:43;17.40;99.90
20744;DHT22;56303;52.160;-0.428;2022-10-20T15:54:16;17.90;99.90
20744;DHT22;56303;52.160;-0.428;2022-10-20T15:56:44;17.90;99.90
20744;DHT22;56303;52.160;-0.428;2022-10-20T15:59:10;17.70;99.90
20744;DHT22;56303;52.160;-0.428;2022-10-20T16:01:37;17.90;99.90
20744;DHT22;56303;52.160;-0.428;2022-10-20T16:04:17;18.10;99.90
20744;DHT22;56303;52.160;-0.428;2022-10-20T16:06:44;17.90;99.90
20744;DHT22;56303;52.160;-0.428;2022-10-20T16:09:12;17.90;99.90
20744;DHT22;56303;52.160;-0.428;2022-10-20T16:11:42;17.90;99.90
20744;DHT22;56303;52.160;-0.428;2022-10-20T16:14:09;18.00;99.90
20744;DHT22;56303;52.160;-0.428;2022-10-20T16:16:36;17.90;99.90
20744;DHT22;56303;52.160;-0.428;2022-10-20T16:19:03;17.90;99.90
20744;DHT22;56303;52.160;-0.428;2022-10-20T16:21:30;17.80;99.90
20744;DHT22;56303;52.160;-0.428;2022-10-20T16:23:56;17.40;99.90
20744;DHT22;56303;52.160;-0.428;2022-10-20T16:26:23;17.20;99.90
20744;DHT22;56303;52.160;-0.428;2022-10-20T16:28:50;17.30;99.90
20744;DHT22;56303;52.160;-0.428;2022-10-20T16:31:18;17.00;99.90
20744;DHT22;56303;52.160;-0.428;2022-10-20T16:33:45;17.10;99.90
20744;DHT22;56303;52.160;-0.428;2022-10-20T16:36:14;17.10;99.90
20744;DHT22;56303;52.160;-0.428;2022-10-20T16:38:42;16.90;99.90
20744;DHT22;56303;52.160;-0.428;2022-10-20T16:41:14;16.50;99.90
20744;DHT22;56303;52.160;-0.428;2022-10-20T16:43:43;16.90;99.90
20744;DHT22;56303;52.160;-0.428;2022-10-20T16:46:12;16.80;99.90
20744;DHT22;56303;52.160;-0.428;2022-10-20T16:48:39;16.90;99.90
20744;DHT22;56303;52.160;-0.428;2022-10-20T16:51:11;16.90;99.90
20744;DHT22;56303;52.160;-0.428;2022-10-20T16:53:38;16.80;99.90
20744;DHT22;56303;52.160;-0.428;2022-10-20T16:56:05;16.70;99.90
20744;DHT22;56303;52.160;-0.428;2022-10-20T16:58:32;16.70;99.90
20744;DHT22;56303;52.160;-0.428;2022-10-20T17:01:05;16.60;99.90
20744;DHT22;56303;52.160;-0.428;2022-10-20T17:03:35;16.60;99.90
20744;DHT22;56303;52.160;-0.428;2022-10-20T17:06:05;16.60;99.90
20744;DHT22;56303;52.160;-0.428;2022-10-20T17:08:33;16.70;99.90
20744;DHT22;56303;52.160;-0.428;2022-10-20T17:11:27;16.60;99.90
20744;DHT22;56303;52.160;-0.428;2022-10-20T17:13:55;16.50;99.90
20744;DHT22;56303;52.160;-0.428;2022-10-20T17:16:28;16.40;99.90
20744;DHT22;56303;52.160;-0.428;2022-10-20T17:18:56;16.30;99.90
20744;DHT22;56303;52.160;-0.428;2022-10-20T17:21:24;16.30;99.90
20744;DHT22;56303;52.160;-0.428;2022-10-20T17:23:51;16.30;99.90
20744;DHT22;56303;52.160;-0.428;2022-10-20T17:26:20;16.30;99.90
20744;DHT22;56303;52.160;-0.428;2022-10-20T17:28:48;16.30;99.90
20744;DHT22;56303;52.160;-0.428;2022-10-20T17:31:16;16.30;99.90
20744;DHT22;56303;52.160;-0.428;2022-10-20T17:33:44;16.30;99.90
20744;DHT22;56303;52.160;-0.428;2022-10-20T17:36:13;16.30;99.90
20744;DHT22;56303;52.160;-0.428;2022-10-20T17:38:41;16.30;99.90
20744;DHT22;56303;52.160;-0.428;2022-10-20T17:41:11;16.20;99.90
20744;DHT22;56303;52.160;-0.428;2022-10-20T17:43:38;16.30;99.90
20744;DHT22;56303;52.160;-0.428;2022-10-20T17:46:10;16.30;99.90
20744;DHT22;56303;52.160;-0.428;2022-10-20T17:48:37;16.20;99.90
20744;DHT22;56303;52.160;-0.428;2022-10-20T17:53:38;16.10;99.90
20744;DHT22;56303;52.160;-0.428;2022-10-20T17:56:08;16.10;99.90
20744;DHT22;56303;52.160;-0.428;2022-10-20T17:58:36;16.00;99.90
20744;DHT22;56303;52.160;-0.428;2022-10-20T18:01:18;16.00;99.90
20744;DHT22;56303;52.160;-0.428;2022-10-20T18:03:47;16.00;99.90